Airfield :
LOGIN :

Register | Disclaimer

   EN    FR    IT 

 










Legend :    VFR   Marginal VFR   IFR   Intensive IFR   Very Intensive IFR
Visi :
Ceiling :
>= 8 km
>= 3000ft
5 to 8 km
1000 to 3000 ft
1500m to 5 km
500 to 1000 ft
800 to 1500m
200 to 500 ft
< 800m
< 200 ft
Symbols :   Thunderstorms  Fog  Heavy snow  Heavy precipitations  Wind > 20 kt
SIGMETs :     Misc.  Thunderstorms  Icing  Turbulence  Mountain Waves  Volcanic Ashes






- Airport Elevation : 466 ft


LHPA - Pápa

CURRENT METAR :
  • 202245Z 18008KT CAVOK 22/13 Q1015 NOSIG RMK BLU

EXPIRED METARs :
  • 202215Z 18008KT CAVOK 22/14 Q1016 NOSIG RMK BLU
  • 202145Z 17008KT CAVOK 22/14 Q1016 NOSIG RMK BLU
  • 202115Z 17006KT CAVOK 21/14 Q1016 NOSIG RMK BLU
  • 202045Z 17004KT CAVOK 22/14 Q1017 NOSIG RMK BLU
  • 202015Z 19004KT CAVOK 22/14 Q1017 NOSIG RMK BLU

TAF TAF LHPA
Valid from the 21 at 00:00 until the 22 at 00:00 UTC


202315Z 2100/2124 20006KT CAVOK
PROB30
TEMPO 2100/2102 18009KT
TEMPO 2102/2105 VRB03KT
BECMG 2105/2107 32013KT
TEMPO 2107/2117 33015G27KT 9999 RA -SHRA SCT040TCU BKN080
PROB30
TEMPO 2107/2112 VRB17G30KT 5000 SHRA -TSRA SCT030CB BKN080
BECMG 2117/2119 32007KT



MET'MAP, your aeronautical weather chart ! - Copyright ORBIFLY December 2007 - Disclaimer

ORBIFLY MET'MAP TEAM :

Programming & Development : Alexandra Zaïnal
Original concept : Baudouin d'Aumeries
Technical & hardware support : Manuel Goepfert
Assistance : Marc-Olivier Méhu

Contact : metmap@orbifly.com




SOURCES & CREDITS :

   NOAA